Time;durP1;ratioP1;P1;durP2;ratioP2;P2;SDS_P1;SDS_P2;PMS_P1;PMS_P2;Temp;Humidity;BMP_temperature;BMP_pressure;BME280_temperature;BME280_humidity;BME280_pressure;Samples;Min_cycle;Max_cycle;Signal;HPM_P1;HPM_P2
2020/12/10 00:01:36;;;;;;;34.10;11.27;;;;;;;7.45;66.69;98208.91;5119622;27;20081;-76
2020/12/10 00:04:02;;;;;;;33.35;10.45;;;;;;;7.49;66.46;98209.69;5121286;27;20065;-78
2020/12/10 00:06:30;;;;;;;40.30;10.82;;;;;;;7.88;65.78;98202.88;5115719;27;20035;-78
2020/12/10 00:08:56;;;;;;;23.70;10.05;;;;;;;7.73;66.14;98201.44;5105167;27;20028;-77
2020/12/10 00:11:22;;;;;;;25.30;9.23;;;;;;;7.94;65.29;98201.88;5123728;27;20034;-76
2020/12/10 00:13:48;;;;;;;29.77;9.05;;;;;;;7.74;65.94;98197.09;5126970;27;20026;-77
2020/12/10 00:16:14;;;;;;;27.88;9.95;;;;;;;7.62;65.95;98197.34;5123763;27;20043;-76
2020/12/10 00:18:40;;;;;;;33.70;8.98;;;;;;;7.97;65.35;98188.81;5109490;27;20034;-77
2020/12/10 00:21:09;;;;;;;28.25;9.07;;;;;;;7.96;65.35;98193.16;5122435;27;20039;-77
2020/12/10 00:23:37;;;;;;;32.50;8.63;;;;;;;7.69;65.89;98191.97;5091778;27;20044;-75
2020/12/10 00:26:03;;;;;;;31.85;9.07;;;;;;;7.65;66.17;98185.13;5109462;27;20031;-76
2020/12/10 00:28:29;;;;;;;24.25;7.85;;;;;;;7.73;65.72;98187.56;5126950;27;20027;-76
2020/12/10 00:30:54;;;;;;;22.88;8.35;;;;;;;7.63;66.25;98188.63;5105519;27;20032;-78
2020/12/10 00:33:31;;;;;;;22.08;8.75;;;;;;;7.80;65.59;98184.84;5124550;27;20130;-77
2020/12/10 00:35:57;;;;;;;28.38;8.10;;;;;;;7.92;65.41;98183.72;5113594;27;20051;-76
2020/12/10 00:38:24;;;;;;;29.25;7.97;;;;;;;7.93;65.25;98184.56;5129877;27;20043;-77
2020/12/10 00:40:51;;;;;;;24.67;8.20;;;;;;;7.70;66.24;98183.31;5109030;27;20032;-77
2020/12/10 00:43:25;;;;;;;30.00;8.40;;;;;;;7.82;65.40;98176.97;5111820;27;20023;-76
2020/12/10 00:46:04;;;;;;;26.27;7.10;;;;;;;7.30;67.35;98182.34;5087102;28;20048;-77
2020/12/10 00:48:31;;;;;;;26.98;8.75;;;;;;;7.44;67.21;98175.16;5085480;28;20043;-77
2020/12/10 00:50:59;;;;;;;20.52;7.50;;;;;;;7.96;65.47;98161.13;5069978;28;20077;-75
2020/12/10 00:53:25;;;;;;;30.30;9.02;;;;;;;7.52;66.68;98149.91;5071198;28;20040;-76
2020/12/10 00:55:55;;;;;;;34.05;10.20;;;;;;;7.46;67.08;98150.00;5088163;28;20493;-78
2020/12/10 00:58:24;;;;;;;29.33;8.15;;;;;;;7.76;66.19;98148.53;5068475;28;20031;-79
2020/12/10 01:00:51;;;;;;;25.23;8.35;;;;;;;7.47;67.00;98143.06;5072473;28;20960;-77
2020/12/10 01:03:17;;;;;;;36.83;9.82;;;;;;;7.38;67.02;98149.31;5067040;28;20092;-77
2020/12/10 01:05:44;;;;;;;34.05;9.43;;;;;;;7.49;66.91;98141.28;5087814;28;20044;-78
2020/12/10 01:08:10;;;;;;;31.58;10.65;;;;;;;7.51;67.25;98136.94;5082989;28;20058;-78
2020/12/10 01:10:36;;;;;;;33.55;10.85;;;;;;;7.74;66.08;98135.56;5069801;28;21527;-76
2020/12/10 01:13:02;;;;;;;31.88;10.57;;;;;;;7.69;66.26;98132.19;5085662;28;20078;-76
2020/12/10 01:15:32;;;;;;;25.88;9.57;;;;;;;7.67;66.14;98136.59;5067239;28;20191;-77
2020/12/10 01:17:58;;;;;;;30.77;10.05;;;;;;;7.60;66.59;98136.72;5120204;27;20036;-76
2020/12/10 01:20:24;;;;;;;34.83;10.32;;;;;;;7.44;67.17;98144.84;5125618;27;20106;-74
2020/12/10 01:22:50;;;;;;;32.35;8.80;;;;;;;7.74;65.80;98139.91;5122313;27;20031;-77
2020/12/10 01:25:16;;;;;;;29.38;8.43;;;;;;;7.71;65.96;98129.59;5128829;27;20054;-75
2020/12/10 01:27:42;;;;;;;30.77;8.57;;;;;;;7.69;65.97;98140.00;5121098;27;20030;-77
2020/12/10 01:30:09;;;;;;;24.77;8.13;;;;;;;7.93;64.89;98136.03;5118963;27;20385;-76
2020/12/10 01:32:35;;;;;;;22.88;8.02;;;;;;;7.76;65.71;98144.19;5121192;27;20087;-76
2020/12/10 01:35:01;;;;;;;30.23;9.57;;;;;;;7.35;66.93;98145.00;5117815;27;20038;-75
2020/12/10 01:37:35;;;;;;;35.63;8.95;;;;;;;7.45;66.64;98143.09;5121010;27;20044;-76
2020/12/10 01:40:03;;;;;;;32.42;8.48;;;;;;;7.68;65.92;98145.22;5106013;27;20142;-75
2020/12/10 01:42:29;;;;;;;24.52;8.00;;;;;;;7.61;66.19;98134.13;5120458;27;20031;-75
2020/12/10 01:45:04;;;;;;;25.67;7.75;;;;;;;7.67;65.75;98144.38;5116869;27;20028;-76
2020/12/10 01:47:31;;;;;;;18.33;6.40;;;;;;;7.67;65.70;98143.53;5119703;27;20427;-75
2020/12/10 01:49:57;;;;;;;22.58;7.03;;;;;;;7.85;64.72;98145.75;5103658;27;20728;-75
2020/12/10 01:52:27;;;;;;;23.77;6.18;;;;;;;7.69;65.40;98149.53;5127285;27;20043;-75
2020/12/10 01:54:53;;;;;;;24.58;7.53;;;;;;;7.55;65.82;98144.63;5099754;28;20442;-77
2020/12/10 01:57:19;;;;;;;25.77;6.82;;;;;;;7.32;65.97;98146.81;5130088;27;20031;-78
2020/12/10 01:59:48;;;;;;;23.25;6.72;;;;;;;7.77;64.88;98151.09;5107561;27;20080;-76
2020/12/10 02:02:15;;;;;;;17.02;6.20;;;;;;;7.81;64.79;98146.69;5123526;27;20038;-76
2020/12/10 02:04:41;;;;;;;28.75;6.47;;;;;;;7.64;65.26;98134.03;5120416;27;20038;-76
2020/12/10 02:07:13;;;;;;;20.10;6.28;;;;;;;7.76;64.92;98140.75;5138635;27;20027;-75
2020/12/10 02:09:39;;;;;;;21.73;6.90;;;;;;;7.87;64.71;98138.75;5100651;27;20031;-76
2020/12/10 02:12:08;;;;;;;18.90;6.32;;;;;;;7.82;64.76;98131.03;5121747;27;20381;-76
2020/12/10 02:19:08;;;;;;;25.02;6.70;;;;;;;8.29;63.44;98131.75;5119928;27;20165;-76
2020/12/10 02:21:34;;;;;;;32.47;7.55;;;;;;;8.16;63.90;98130.31;5114795;27;20054;-77
2020/12/10 02:23:59;;;;;;;23.77;6.97;;;;;;;8.26;62.77;98131.81;5123428;27;20031;-76
2020/12/10 02:26:26;;;;;;;16.58;6.03;;;;;;;8.09;63.66;98139.16;5119946;27;20473;-76
2020/12/10 02:28:59;;;;;;;17.80;6.50;;;;;;;7.94;64.02;98137.75;5107110;27;20146;-76
2020/12/10 02:31:31;;;;;;;19.65;6.63;;;;;;;7.92;64.05;98136.03;5105863;27;20159;-75
2020/12/10 02:33:59;;;;;;;22.48;6.93;;;;;;;8.30;62.90;98136.94;5121429;27;20046;-74
2020/12/10 02:36:25;;;;;;;24.83;6.22;;;;;;;8.08;63.54;98132.22;5117769;27;20031;-75
2020/12/10 02:38:51;;;;;;;24.77;6.57;;;;;;;8.14;63.32;98137.31;5124148;27;20027;-74
2020/12/10 02:41:19;;;;;;;24.67;6.88;;;;;;;8.05;63.34;98132.31;5123553;27;20119;-77
2020/12/10 02:43:45;;;;;;;27.40;7.10;;;;;;;8.20;62.97;98137.16;5120521;27;20373;-76
2020/12/10 02:46:11;;;;;;;23.67;5.55;;;;;;;7.63;64.82;98136.66;5118791;27;20035;-76
2020/12/10 02:48:37;;;;;;;18.92;5.63;;;;;;;7.73;64.40;98141.63;5121034;27;20392;-76
2020/12/10 02:51:03;;;;;;;18.85;5.20;;;;;;;7.77;64.11;98139.84;5121666;27;20047;-76
2020/12/10 02:53:30;;;;;;;23.20;5.60;;;;;;;7.78;64.02;98145.00;5122052;27;20133;-78
2020/12/10 02:55:56;;;;;;;23.50;5.63;;;;;;;7.72;64.44;98146.91;5117937;27;20100;-75
2020/12/10 02:58:22;;;;;;;26.00;5.82;;;;;;;7.95;63.50;98142.06;5124619;27;20034;-75
2020/12/10 03:01:00;;;;;;;21.13;6.07;;;;;;;8.01;63.27;98135.88;5120222;27;20039;-76
2020/12/10 03:03:26;;;;;;;20.75;5.13;;;;;;;8.10;63.24;98139.13;5103156;27;20027;-77
2020/12/10 03:05:52;;;;;;;22.90;5.82;;;;;;;7.92;63.54;98133.44;5117049;27;20038;-76
2020/12/10 03:08:17;;;;;;;23.80;5.95;;;;;;;8.08;63.44;98133.09;5115991;27;20378;-77
2020/12/10 03:10:44;;;;;;;17.10;4.50;;;;;;;8.18;62.58;98133.72;5123080;27;20035;-74
2020/12/10 03:13:09;;;;;;;12.13;4.32;;;;;;;8.04;62.73;98131.44;5114185;27;20083;-75
2020/12/10 03:15:35;;;;;;;17.33;5.25;;;;;;;7.80;63.72;98130.25;5122584;27;20122;-76
2020/12/10 03:18:02;;;;;;;20.60;6.13;;;;;;;7.98;63.25;98134.19;5106360;27;20050;-76
2020/12/10 03:20:27;;;;;;;18.90;4.93;;;;;;;7.91;63.37;98126.56;5104455;27;20110;-76
2020/12/10 03:23:09;;;;;;;17.35;5.00;;;;;;;8.00;63.15;98124.63;5106822;27;20532;-76
2020/12/10 03:25:34;;;;;;;15.27;4.00;;;;;;;8.08;62.85;98125.28;5102147;27;20039;-77
2020/12/10 03:28:00;;;;;;;21.13;5.15;;;;;;;7.93;63.22;98122.16;5115624;27;20034;-75
2020/12/10 03:30:26;;;;;;;20.88;4.75;;;;;;;7.66;63.89;98123.63;5122660;27;20111;-76
2020/12/10 03:32:55;;;;;;;17.67;4.20;;;;;;;7.71;63.98;98124.38;5122001;27;20058;-75
2020/12/10 03:35:24;;;;;;;13.80;5.05;;;;;;;7.73;63.93;98123.44;5121078;27;20046;-77
2020/12/10 03:37:50;;;;;;;15.43;4.30;;;;;;;7.89;63.52;98118.78;5120046;27;20038;-75
2020/12/10 03:40:15;;;;;;;22.15;4.80;;;;;;;7.97;63.32;98113.41;5126175;27;20091;-76
2020/12/10 03:42:41;;;;;;;16.58;4.32;;;;;;;8.05;63.05;98117.56;5123975;27;20031;-77
2020/12/10 03:45:07;;;;;;;20.88;4.40;;;;;;;7.97;63.29;98126.41;5122187;27;20031;-75
2020/12/10 03:47:33;;;;;;;21.05;4.78;;;;;;;7.98;63.46;98121.19;5119422;27;20163;-77
2020/12/10 03:50:06;;;;;;;19.15;4.78;;;;;;;8.10;62.99;98128.72;5123352;27;20035;-76
2020/12/10 03:52:31;;;;;;;15.25;4.80;;;;;;;7.87;63.48;98123.16;5123994;27;20047;-77
2020/12/10 03:54:58;;;;;;;19.30;5.22;;;;;;;8.03;63.42;98113.28;5115778;27;20055;-76
2020/12/10 03:57:24;;;;;;;18.20;5.40;;;;;;;8.19;62.76;98117.25;5117112;28;20019;-78
2020/12/10 03:59:50;;;;;;;26.70;4.80;;;;;;;8.04;63.29;98115.84;5114633;27;20031;-75
2020/12/10 04:02:16;;;;;;;27.33;4.88;;;;;;;8.04;63.19;98115.84;5123359;28;20099;-76
2020/12/10 04:04:42;;;;;;;19.90;5.40;;;;;;;8.24;62.64;98118.84;5102302;28;20103;-77
2020/12/10 04:07:07;;;;;;;21.98;4.65;;;;;;;8.23;62.45;98117.13;5102234;27;20039;-76
2020/12/10 04:09:42;;;;;;;15.13;4.93;;;;;;;8.44;62.10;98113.19;5119215;27;20023;-76
2020/12/10 04:12:08;;;;;;;25.23;5.63;;;;;;;8.26;62.39;98111.00;5122219;28;20039;-76
2020/12/10 04:14:41;;;;;;;17.55;4.60;;;;;;;8.10;63.10;98115.72;5103665;28;20491;-75
2020/12/10 04:17:07;;;;;;;21.98;5.22;;;;;;;8.19;62.89;98125.91;5121258;28;20359;-75
2020/12/10 04:19:33;;;;;;;23.55;5.25;;;;;;;8.10;63.35;98112.25;5105969;27;20099;-75
2020/12/10 04:22:01;;;;;;;26.90;5.13;;;;;;;8.13;63.08;98120.84;5127111;28;20544;-77
2020/12/10 04:24:26;;;;;;;20.00;4.85;;;;;;;8.35;62.49;98121.22;5108632;27;20031;-76
2020/12/10 04:26:52;;;;;;;20.73;4.63;;;;;;;8.80;61.29;98114.03;5104591;28;20756;-77
2020/12/10 04:29:18;;;;;;;21.60;4.65;;;;;;;8.60;61.77;98122.34;5102021;28;20401;-78
2020/12/10 04:31:44;;;;;;;20.88;4.47;;;;;;;8.47;61.92;98123.53;5101876;28;20036;-76
2020/12/10 04:34:09;;;;;;;20.23;5.82;;;;;;;8.58;61.76;98118.94;5117892;28;20140;-77
2020/12/10 04:36:35;;;;;;;16.83;5.05;;;;;;;8.72;61.48;98116.84;5102189;28;20019;-78
2020/12/10 04:39:03;;;;;;;21.98;5.07;;;;;;;8.40;62.74;98116.75;5116562;28;20363;-76
2020/12/10 04:41:32;;;;;;;16.02;4.55;;;;;;;8.47;62.08;98117.47;5083555;28;20036;-76
2020/12/10 04:43:58;;;;;;;21.13;5.80;;;;;;;8.55;62.20;98121.59;5103191;28;20445;-77
2020/12/10 04:46:25;;;;;;;22.77;4.88;;;;;;;8.37;62.64;98127.25;5122023;27;20039;-76
2020/12/10 04:48:53;;;;;;;17.15;5.20;;;;;;;8.39;62.69;98135.88;5123095;28;20168;-78
2020/12/10 04:51:20;;;;;;;15.45;5.03;;;;;;;8.63;61.85;98135.25;5098402;28;20054;-77
2020/12/10 04:53:47;;;;;;;16.63;4.95;;;;;;;8.43;62.01;98134.91;5124762;27;20031;-76
2020/12/10 04:56:15;;;;;;;21.58;5.03;;;;;;;8.54;61.99;98139.84;5127971;27;20131;-80
2020/12/10 04:58:41;;;;;;;19.67;5.85;;;;;;;8.84;61.40;98133.88;5125947;27;20035;-78
2020/12/10 05:01:07;;;;;;;22.92;5.25;;;;;;;8.42;62.37;98142.75;5107970;27;20042;-76
2020/12/10 05:03:33;;;;;;;21.63;4.85;;;;;;;8.25;63.16;98143.94;5105559;27;20105;-79
2020/12/10 05:06:09;;;;;;;20.65;5.15;;;;;;;8.30;63.18;98138.69;5125034;27;20055;-77
2020/12/10 05:08:38;;;;;;;22.63;6.05;;;;;;;8.17;63.52;98135.47;5110760;27;20045;-76
2020/12/10 05:11:04;;;;;;;25.33;6.57;;;;;;;7.93;64.56;98128.22;5127719;27;20096;-77
2020/12/10 05:13:30;;;;;;;26.30;6.38;;;;;;;8.16;63.63;98131.16;5102274;27;20061;-78
2020/12/10 05:15:56;;;;;;;19.75;5.75;;;;;;;8.32;63.29;98132.56;5125744;27;20031;-77
2020/12/10 05:18:22;;;;;;;26.58;6.28;;;;;;;8.47;62.85;98133.94;5128717;27;20228;-75
2020/12/10 05:20:51;;;;;;;26.77;6.38;;;;;;;8.14;63.55;98129.50;5119723;27;20026;-76
2020/12/10 05:23:36;;;;;;;29.65;6.35;;;;;;;8.13;63.76;98133.84;5109702;27;20112;-78
2020/12/10 05:26:07;;;;;;;17.13;6.95;;;;;;;8.30;63.23;98136.06;5122893;27;20035;-77
2020/12/10 05:28:51;;;;;;;27.65;6.78;;;;;;;8.13;63.67;98132.97;5123363;27;20081;-76
2020/12/10 05:31:35;;;;;;;22.83;6.22;;;;;;;8.09;64.26;98133.94;5111646;27;20807;-77
2020/12/10 05:34:02;;;;;;;25.27;6.65;;;;;;;8.06;64.05;98131.41;5107048;27;20035;-77
2020/12/10 05:36:32;;;;;;;22.80;6.25;;;;;;;8.12;64.20;98134.72;5121888;27;20035;-77
2020/12/10 05:39:07;;;;;;;25.15;7.32;;;;;;;8.28;63.80;98132.63;5125898;27;20106;-75
2020/12/10 05:41:36;;;;;;;24.25;7.15;;;;;;;8.08;64.23;98138.28;5123841;27;20031;-76
2020/12/10 05:44:23;;;;;;;22.05;6.80;;;;;;;8.10;64.17;98131.31;5105138;27;20094;-77
2020/12/10 05:47:02;;;;;;;26.70;6.97;;;;;;;7.79;65.29;98132.88;5121476;27;20042;-77
2020/12/10 05:49:30;;;;;;;24.10;7.22;;;;;;;8.05;64.32;98130.56;5122510;27;20035;-76
2020/12/10 05:52:03;;;;;;;23.95;7.32;;;;;;;8.09;64.38;98140.00;5106618;27;20051;-78
2020/12/10 05:54:33;;;;;;;26.05;8.32;;;;;;;8.13;64.16;98139.03;5117784;27;20822;-76
2020/12/10 05:57:02;;;;;;;16.73;6.93;;;;;;;8.23;63.91;98134.50;5112183;27;20404;-77
2020/12/10 05:59:30;;;;;;;21.08;7.20;;;;;;;8.40;63.52;98128.91;5120499;27;20043;-76
2020/12/10 06:01:57;;;;;;;25.38;7.60;;;;;;;8.08;64.14;98121.81;5117650;27;20027;-77
2020/12/10 06:04:24;;;;;;;20.25;7.80;;;;;;;8.04;64.53;98125.38;5116393;27;20030;-76
2020/12/10 06:06:51;;;;;;;29.00;7.68;;;;;;;8.10;64.34;98123.53;5129017;27;20034;-76
2020/12/10 06:09:18;;;;;;;22.55;8.23;;;;;;;8.32;63.70;98129.97;5124201;27;20042;-77
2020/12/10 06:11:45;;;;;;;25.58;7.18;;;;;;;8.53;63.06;98135.56;5103882;27;20038;-76
2020/12/10 06:14:15;;;;;;;28.27;8.18;;;;;;;8.32;63.78;98137.75;5124847;27;20329;-77
2020/12/10 06:16:41;;;;;;;22.08;8.98;;;;;;;8.29;63.53;98135.25;5142783;27;20038;-76
2020/12/10 06:19:13;;;;;;;26.30;8.00;;;;;;;8.45;63.25;98147.88;5105960;27;20031;-75
2020/12/10 06:21:44;;;;;;;24.27;8.77;;;;;;;8.30;63.61;98157.75;5123196;27;20019;-75
2020/12/10 06:24:25;;;;;;;26.33;8.63;;;;;;;8.20;64.01;98157.97;5105227;27;20027;-76
2020/12/10 06:26:58;;;;;;;26.15;9.10;;;;;;;8.44;63.44;98159.19;5105528;27;20073;-77
2020/12/10 06:29:34;;;;;;;25.60;9.30;;;;;;;8.25;63.75;98161.31;5116752;27;20088;-75
2020/12/10 06:32:00;;;;;;;26.95;8.85;;;;;;;8.52;63.43;98158.13;5103900;28;20059;-76
2020/12/10 06:34:34;;;;;;;28.63;10.30;;;;;;;8.15;64.44;98155.44;5084229;27;20046;-77
2020/12/10 06:37:24;;;;;;;33.08;9.90;;;;;;;8.05;64.72;98153.97;5069374;28;20043;-77
2020/12/10 06:40:06;;;;;;;38.80;10.55;;;;;;;7.92;65.44;98157.69;5065062;27;20035;-77
2020/12/10 06:42:46;;;;;;;27.05;9.52;;;;;;;7.79;65.92;98156.25;5103686;28;20043;-77
2020/12/10 06:45:34;;;;;;;26.58;9.43;;;;;;;7.76;65.94;98161.53;5084295;28;20035;-78
2020/12/10 06:48:07;;;;;;;28.20;10.02;;;;;;;7.91;65.70;98168.16;5083606;28;20088;-76
2020/12/10 06:50:39;;;;;;;34.60;11.73;;;;;;;7.84;66.02;98170.88;5096534;28;20044;-77
2020/12/10 06:53:14;;;;;;;27.77;9.95;;;;;;;7.76;66.02;98178.00;5085536;28;20036;-76
2020/12/10 06:55:58;;;;;;;25.23;10.15;;;;;;;7.92;65.94;98173.31;5100764;27;20417;-76
2020/12/10 06:58:37;;;;;;;28.15;10.45;;;;;;;8.13;65.16;98185.88;5081486;28;20536;-78
2020/12/10 07:01:24;;;;;;;22.83;9.25;;;;;;;8.14;65.17;98190.19;5101312;28;20058;-75
2020/12/10 07:03:54;;;;;;;31.90;11.05;;;;;;;8.10;65.30;98191.13;5072840;28;20048;-76
2020/12/10 07:06:20;;;;;;;35.38;10.98;;;;;;;8.30;64.56;98193.31;5063745;28;20122;-77
2020/12/10 07:09:08;;;;;;;35.42;11.27;;;;;;;8.34;64.63;98186.31;5105351;28;20071;-76
2020/12/10 07:11:39;;;;;;;29.30;10.30;;;;;;;8.42;64.00;98195.66;5100200;28;20442;-76
2020/12/10 07:14:40;;;;;;;27.60;11.25;;;;;;;8.44;64.15;98195.63;5101363;28;20036;-76
2020/12/10 07:17:12;;;;;;;25.65;9.70;;;;;;;8.28;64.59;98190.72;5083264;28;20027;-75
2020/12/10 07:19:38;;;;;;;28.05;10.93;;;;;;;8.23;64.51;98189.97;5061266;28;20037;-78
2020/12/10 07:22:04;;;;;;;36.17;11.60;;;;;;;8.44;64.06;98198.22;5049382;28;20182;-79
2020/12/10 07:24:30;;;;;;;24.80;10.45;;;;;;;8.42;64.04;98200.00;5047038;28;20127;-77
2020/12/10 07:26:59;;;;;;;32.20;10.65;;;;;;;8.60;63.47;98195.22;5033771;28;20040;-79
2020/12/10 07:29:28;;;;;;;27.40;11.10;;;;;;;8.47;63.91;98196.41;5033573;28;20036;-76
2020/12/10 07:31:55;;;;;;;23.80;9.73;;;;;;;8.52;63.43;98189.34;5045104;28;20044;-76
2020/12/10 07:34:22;;;;;;;25.30;10.27;;;;;;;8.45;64.05;98192.97;5029967;28;20048;-77
2020/12/10 07:36:51;;;;;;;34.17;10.05;;;;;;;8.20;64.22;98197.00;5051327;28;20468;-77
2020/12/10 07:39:43;;;;;;;28.08;9.85;;;;;;;8.46;63.88;98196.44;5035877;28;20176;-77
2020/12/10 07:42:17;;;;;;;25.42;10.65;;;;;;;8.47;63.65;98198.16;5044533;28;20135;-78
2020/12/10 07:44:43;;;;;;;35.53;11.10;;;;;;;8.33;64.17;98201.06;5043334;28;20040;-77
2020/12/10 07:47:12;;;;;;;27.08;11.13;;;;;;;8.32;63.90;98202.81;5047512;28;20114;-77
2020/12/10 07:49:39;;;;;;;30.92;11.07;;;;;;;8.54;63.61;98205.78;5048646;28;20082;-76
2020/12/10 07:52:08;;;;;;;35.10;12.10;;;;;;;8.49;63.89;98209.41;5099149;28;20039;-76
2020/12/10 07:54:47;;;;;;;29.92;11.88;;;;;;;8.54;63.83;98213.56;5118995;27;20732;-79
2020/12/10 07:57:31;;;;;;;34.97;11.45;;;;;;;8.57;63.76;98220.47;5125624;27;20395;-77
2020/12/10 08:00:03;;;;;;;34.45;11.98;;;;;;;8.59;63.54;98218.66;5122186;28;20070;-76
2020/12/10 08:02:49;;;;;;;32.70;10.60;;;;;;;8.46;64.37;98217.25;5104923;28;20398;-76
2020/12/10 08:05:16;;;;;;;33.38;11.43;;;;;;;8.42;64.24;98219.06;5103700;28;20474;-76
2020/12/10 08:07:50;;;;;;;29.83;11.25;;;;;;;8.10;65.39;98217.16;5123616;27;20477;-76
2020/12/10 08:10:22;;;;;;;38.10;11.27;;;;;;;8.38;64.67;98212.22;5100622;28;20046;-76
2020/12/10 08:13:10;;;;;;;29.92;12.02;;;;;;;8.44;64.48;98214.66;5122764;28;20039;-76
2020/12/10 08:15:37;;;;;;;36.22;11.95;;;;;;;8.17;65.18;98220.47;5118870;27;20127;-76
2020/12/10 08:18:12;;;;;;;42.40;11.88;;;;;;;8.42;64.59;98234.69;5103043;28;20412;-77
2020/12/10 08:20:45;;;;;;;35.40;11.63;;;;;;;8.42;64.38;98233.81;5117423;27;20656;-76
2020/12/10 08:23:14;;;;;;;38.35;11.13;;;;;;;8.21;65.08;98235.97;5120838;27;20047;-77
2020/12/10 08:25:41;;;;;;;25.42;11.85;;;;;;;8.11;65.49;98231.84;5105534;28;20734;-78
2020/12/10 08:28:09;;;;;;;39.47;11.38;;;;;;;8.34;64.86;98231.41;5108859;27;20077;-75
2020/12/10 08:30:36;;;;;;;39.85;12.32;;;;;;;7.87;66.39;98237.53;5103015;27;20027;-76
2020/12/10 08:33:03;;;;;;;32.97;11.05;;;;;;;8.22;65.49;98234.22;5108925;27;20080;-75
2020/12/10 08:35:49;;;;;;;31.00;11.75;;;;;;;8.13;65.87;98234.41;5122339;27;20058;-76
2020/12/10 08:38:17;;;;;;;36.38;11.73;;;;;;;8.06;66.28;98230.22;5110694;27;20046;-77
2020/12/10 08:40:42;;;;;;;40.28;12.20;;;;;;;8.14;66.03;98231.81;5121615;27;20633;-80
2020/12/10 08:43:14;;;;;;;38.53;12.23;;;;;;;8.11;66.16;98242.25;5129377;27;20105;-76
2020/12/10 08:45:44;;;;;;;36.97;10.93;;;;;;;8.09;66.33;98240.59;5101022;27;20122;-74
2020/12/10 08:48:12;;;;;;;39.92;12.57;;;;;;;8.25;65.87;98239.34;5130443;27;20050;-76
2020/12/10 08:50:50;;;;;;;35.30;10.55;;;;;;;8.60;65.03;98239.47;5110745;27;20035;-75
2020/12/10 08:53:17;;;;;;;38.00;9.77;;;;;;;8.45;65.34;98236.34;5111787;27;20060;-76
2020/12/10 08:55:46;;;;;;;29.80;9.38;;;;;;;8.17;66.35;98236.06;5126171;27;20250;-80
2020/12/10 08:58:21;;;;;;;48.38;10.27;;;;;;;8.00;67.29;98232.97;5105739;28;20163;-75
2020/12/10 09:00:51;;;;;;;29.52;9.55;;;;;;;7.94;67.44;98225.28;5106063;27;20588;-76
2020/12/10 09:03:18;;;;;;;39.97;10.77;;;;;;;7.89;67.92;98214.97;5105002;27;20533;-76
2020/12/10 09:05:44;;;;;;;37.08;9.98;;;;;;;7.88;67.77;98211.53;5101808;27;20769;-74
2020/12/10 09:08:13;;;;;;;29.10;11.40;;;;;;;8.03;67.52;98204.28;5125823;27;20039;-76
2020/12/10 09:10:40;;;;;;;36.95;11.40;;;;;;;8.22;67.01;98209.06;5123772;27;20027;-75
2020/12/10 09:13:08;;;;;;;28.67;9.20;;;;;;;7.96;68.05;98200.94;5108903;27;20103;-75
2020/12/10 09:15:37;;;;;;;37.65;9.13;;;;;;;7.79;68.64;98206.50;5128292;27;20397;-75
2020/12/10 09:18:04;;;;;;;36.17;10.07;;;;;;;8.11;67.54;98211.03;5113367;27;20049;-77
2020/12/10 09:20:40;;;;;;;25.73;8.85;;;;;;;8.13;67.68;98201.47;5107205;27;20055;-76
2020/12/10 09:23:06;;;;;;;25.67;8.75;;;;;;;8.28;67.45;98214.16;5108433;27;20042;-77
2020/12/10 09:25:38;;;;;;;23.10;9.45;;;;;;;8.04;68.35;98208.59;5103702;28;20382;-78
2020/12/10 09:28:05;;;;;;;36.17;9.63;;;;;;;8.14;67.73;98202.31;5107346;27;20032;-75
2020/12/10 09:30:31;;;;;;;33.30;9.65;;;;;;;8.12;68.13;98199.75;5124577;27;20034;-76
2020/12/10 09:32:57;;;;;;;34.78;9.52;;;;;;;8.03;68.16;98194.75;5118826;27;20035;-76
2020/12/10 09:35:23;;;;;;;28.40;9.23;;;;;;;8.18;67.74;98204.81;5124255;27;20035;-75
2020/12/10 09:37:49;;;;;;;30.65;8.73;;;;;;;7.66;69.69;98204.19;5119772;27;20632;-77
2020/12/10 09:40:16;;;;;;;41.05;10.02;;;;;;;8.05;68.78;98199.94;5125886;27;20171;-77
2020/12/10 09:42:44;;;;;;;36.95;10.13;;;;;;;8.03;68.67;98202.56;5108983;27;20671;-76
2020/12/10 09:45:18;;;;;;;30.90;10.43;;;;;;;8.22;68.61;98203.00;5113717;27;20031;-77
2020/12/10 09:47:46;;;;;;;38.45;9.65;;;;;;;8.17;68.19;98203.09;5108141;27;20031;-78
2020/12/10 09:53:01;;;;;;;33.75;10.43;;;;;;;8.31;68.08;98205.44;5116744;27;20573;-76
2020/12/10 09:58:08;;;;;;;29.73;10.70;;;;;;;8.88;66.16;98207.56;5125434;27;20043;-76
2020/12/10 10:00:35;;;;;;;36.58;11.80;;;;;;;8.40;67.76;98215.63;5122722;27;20681;-75
2020/12/10 10:03:06;;;;;;;26.77;10.50;;;;;;;8.73;67.11;98214.84;5108660;27;20122;-76
2020/12/10 10:05:32;;;;;;;29.98;10.55;;;;;;;9.06;66.29;98214.97;5106264;27;20046;-76
2020/12/10 10:07:58;;;;;;;36.08;11.43;;;;;;;9.23;65.34;98207.56;5104239;27;23266;-76
2020/12/10 10:10:24;;;;;;;30.10;10.23;;;;;;;9.23;65.13;98206.69;5128285;27;20039;-76
2020/12/10 10:12:54;;;;;;;34.30;11.55;;;;;;;8.82;66.60;98205.13;5130638;27;20065;-76
2020/12/10 10:15:22;;;;;;;26.83;9.77;;;;;;;8.90;66.09;98211.00;5122133;27;20035;-75
2020/12/10 10:17:49;;;;;;;38.55;10.38;;;;;;;8.97;65.98;98221.22;5117044;27;20035;-76
2020/12/10 10:20:16;;;;;;;35.08;12.23;;;;;;;8.89;66.47;98217.09;5106443;27;20031;-76
2020/12/10 10:22:43;;;;;;;30.00;10.30;;;;;;;8.73;67.32;98214.00;5108640;27;20032;-76
2020/12/10 10:25:09;;;;;;;33.40;10.52;;;;;;;8.89;66.73;98210.16;5119449;27;20031;-75
2020/12/10 10:27:39;;;;;;;36.20;11.95;;;;;;;9.06;66.20;98231.44;5105724;27;20035;-77
2020/12/10 10:30:07;;;;;;;30.38;10.38;;;;;;;9.35;65.38;98220.25;5116989;27;20023;-76
2020/12/10 10:32:34;;;;;;;38.05;11.10;;;;;;;9.16;65.84;98219.88;5118469;27;20779;-76
2020/12/10 10:35:00;;;;;;;43.00;10.70;;;;;;;9.22;65.96;98225.81;5115578;27;20035;-75
2020/12/10 10:37:26;;;;;;;31.98;10.90;;;;;;;9.27;65.29;98217.00;5108082;27;20027;-75
2020/12/10 10:39:53;;;;;;;29.95;10.13;;;;;;;8.96;66.53;98216.06;5095450;27;20032;-76
2020/12/10 10:42:19;;;;;;;38.63;12.65;;;;;;;8.91;66.71;98210.97;5107424;27;20031;-75
2020/12/10 10:44:45;;;;;;;26.73;10.23;;;;;;;8.65;67.47;98209.00;5099967;27;20034;-75
2020/12/10 10:47:14;;;;;;;36.30;12.88;;;;;;;9.00;67.03;98191.66;5102701;27;20038;-76
2020/12/10 10:49:43;;;;;;;;;;;;;;;8.95;66.66;98188.31;5122366;27;20035;-77
2020/12/10 10:52:09;;;;;;;37.95;12.48;;;;;;;9.47;65.35;98203.44;5122008;27;19926;-77
2020/12/10 10:54:35;;;;;;;27.85;11.80;;;;;;;9.63;64.78;98200.41;5103531;27;20111;-76
2020/12/10 10:57:01;;;;;;;26.38;12.98;;;;;;;9.38;65.33;98188.91;5122013;27;20040;-77
2020/12/10 10:59:27;;;;;;;29.33;12.23;;;;;;;9.16;65.94;98185.16;5116228;27;20503;-79
2020/12/10 11:01:54;;;;;;;39.47;12.68;;;;;;;9.22;65.71;98185.00;5105239;27;20027;-76
2020/12/10 11:04:20;;;;;;;40.63;13.40;;;;;;;9.30;65.67;98183.06;5118018;27;20127;-77
2020/12/10 11:06:51;;;;;;;37.75;12.45;;;;;;;8.82;67.34;98186.91;5117603;27;20102;-77
2020/12/10 11:09:18;;;;;;;31.10;12.60;;;;;;;9.48;65.32;98186.91;5105103;27;20035;-78
2020/12/10 11:11:44;;;;;;;36.88;13.23;;;;;;;9.32;66.00;98175.19;5118519;27;20057;-77
2020/12/10 11:14:11;;;;;;;36.72;12.05;;;;;;;8.85;67.45;98168.59;5118300;27;20048;-77
2020/12/10 11:16:37;;;;;;;29.85;13.45;;;;;;;8.77;68.19;98171.41;5105400;27;20031;-77
2020/12/10 11:19:04;;;;;;;34.38;13.98;;;;;;;8.97;67.08;98157.88;5105215;27;20045;-76
2020/12/10 11:21:30;;;;;;;41.10;14.40;;;;;;;8.76;68.18;98156.66;5130169;27;20042;-76
2020/12/10 11:23:56;;;;;;;34.95;14.75;;;;;;;8.54;68.69;98158.91;5105280;27;20143;-75
2020/12/10 11:26:22;;;;;;;33.08;13.20;;;;;;;8.74;68.17;98155.84;5115604;27;20448;-76
2020/12/10 11:28:50;;;;;;;34.33;14.25;;;;;;;8.75;68.26;98157.56;5107595;27;20031;-76
2020/12/10 11:31:16;;;;;;;35.47;13.85;;;;;;;9.02;67.18;98163.81;5101505;27;20397;-76
2020/12/10 11:33:41;;;;;;;38.45;14.55;;;;;;;9.13;67.11;98156.56;5118994;27;20031;-74
2020/12/10 11:36:08;;;;;;;34.25;13.00;;;;;;;9.33;66.21;98162.13;5100809;27;20041;-75
2020/12/10 11:38:34;;;;;;;44.42;15.07;;;;;;;9.31;66.84;98165.66;5106792;27;20130;-75
2020/12/10 11:41:00;;;;;;;34.88;14.23;;;;;;;9.60;65.78;98161.34;5115479;27;20126;-76
2020/12/10 11:43:25;;;;;;;35.80;14.10;;;;;;;9.38;66.27;98175.88;5120844;27;20147;-76
2020/12/10 11:45:51;;;;;;;39.42;12.93;;;;;;;9.74;65.64;98168.78;5119421;27;20031;-76
2020/12/10 11:48:17;;;;;;;35.55;12.82;;;;;;;9.88;64.68;98169.25;5121609;27;20084;-76
2020/12/10 11:50:43;;;;;;;27.42;12.30;;;;;;;9.56;65.63;98169.31;5120200;27;20030;-77